Terminal Aerodrome Forecast
Issued by NWS Grand Forks, ND

Home | Current Version | Previous Version | Graphics & Text | Print | Product List | Glossary On
Versions: 1 2 3 4 5 6 7 8 9 10 11 12 13
000
FTUS43 KFGF 232300
TAFGFK
TAF
KGFK 232320Z 2400/2424 22007KT P6SM SCT250
     FM241800 24016KT P6SM SCT250=

USA.gov is the U.S. government's official web portal to all federal, state and local government web resources and services.